createdAt,value
2023-03-28T00:00:09.542Z,1013.34
2023-03-28T00:01:09.556Z,1013.38
2023-03-28T00:02:09.545Z,1013.40
2023-03-28T00:03:09.581Z,1013.44
2023-03-28T00:04:09.617Z,1013.34
2023-03-28T00:05:09.556Z,1013.46
2023-03-28T00:06:09.834Z,1013.42
2023-03-28T00:07:09.557Z,1013.39
2023-03-28T00:08:09.561Z,1013.43
2023-03-28T00:09:09.557Z,1013.38
2023-03-28T00:10:09.564Z,1013.46
2023-03-28T00:11:09.602Z,1013.51
2023-03-28T00:12:09.566Z,1013.49
2023-03-28T00:13:09.564Z,1013.49
2023-03-28T00:14:09.574Z,1013.52
2023-03-28T00:15:09.577Z,1013.49
2023-03-28T00:16:09.643Z,1013.55
2023-03-28T00:17:09.575Z,1013.50
2023-03-28T00:18:09.572Z,1013.55
2023-03-28T00:19:09.570Z,1013.58
2023-03-28T00:20:09.582Z,1013.62
2023-03-28T00:21:09.576Z,1013.58
2023-03-28T00:22:09.597Z,1013.51
2023-03-28T00:23:09.578Z,1013.55
2023-03-28T00:24:09.582Z,1013.57
2023-03-28T00:25:09.580Z,1013.63
2023-03-28T00:26:09.585Z,1013.64
2023-03-28T00:27:09.584Z,1013.72
2023-03-28T00:28:09.600Z,1013.61
2023-03-28T00:29:09.581Z,1013.64
2023-03-28T00:30:09.603Z,1013.56
2023-03-28T00:31:09.652Z,1013.58
2023-03-28T00:32:09.586Z,1013.52
2023-03-28T00:33:09.587Z,1013.56
2023-03-28T00:34:09.596Z,1013.63
2023-03-28T00:35:09.588Z,1013.54
2023-03-28T00:36:09.613Z,1013.59
2023-03-28T00:37:09.589Z,1013.65
2023-03-28T00:38:09.614Z,1013.65
2023-03-28T00:39:09.600Z,1013.70
2023-03-28T00:40:09.603Z,1013.65
2023-03-28T00:41:09.597Z,1013.73
2023-03-28T00:42:09.604Z,1013.66
2023-03-28T00:43:09.601Z,1013.70
2023-03-28T00:44:09.607Z,1013.68
2023-03-28T00:45:09.611Z,1013.75
2023-03-28T00:46:09.693Z,1013.71
2023-03-28T00:47:09.650Z,1013.70
2023-03-28T00:48:14.432Z,1013.73
2023-03-28T00:49:09.621Z,1013.75
2023-03-28T00:50:09.607Z,1013.80
2023-03-28T00:51:09.606Z,1013.76
2023-03-28T00:52:09.616Z,1013.74
2023-03-28T00:53:09.608Z,1013.77
2023-03-28T00:54:09.642Z,1013.75
2023-03-28T00:55:09.620Z,1013.81
2023-03-28T00:56:09.616Z,1013.84
2023-03-28T00:57:09.674Z,1013.89
2023-03-28T00:58:09.616Z,1013.85
2023-03-28T00:59:09.628Z,1013.89
2023-03-28T01:00:09.625Z,1013.88
2023-03-28T01:01:09.667Z,1013.88
2023-03-28T01:02:09.669Z,1013.92
2023-03-28T01:03:09.687Z,1013.90
2023-03-28T01:04:09.621Z,1013.84
2023-03-28T01:05:09.634Z,1013.89
2023-03-28T01:06:09.637Z,1013.87
2023-03-28T01:07:09.636Z,1013.93
2023-03-28T01:08:09.629Z,1013.92
2023-03-28T01:09:09.647Z,1014.06
2023-03-28T01:10:09.655Z,1013.93
2023-03-28T01:11:09.632Z,1013.95
2023-03-28T01:12:09.635Z,1014.01
2023-03-28T01:13:09.636Z,1013.90
2023-03-28T01:14:09.633Z,1013.96
2023-03-28T01:15:09.634Z,1013.92
2023-03-28T01:16:09.669Z,1013.92
2023-03-28T01:17:09.638Z,1013.93
2023-03-28T01:18:09.659Z,1013.93
2023-03-28T01:19:09.642Z,1013.97
2023-03-28T01:20:09.680Z,1014.04
2023-03-28T01:21:09.638Z,1013.99
2023-03-28T01:22:09.643Z,1014.05
2023-03-28T01:23:09.645Z,1014.01
2023-03-28T01:24:11.891Z,1014.08
2023-03-28T01:25:09.638Z,1014.06
2023-03-28T01:26:09.668Z,1014.06
2023-03-28T01:27:09.648Z,1014.22
2023-03-28T01:28:09.651Z,1014.16
2023-03-28T01:29:09.648Z,1014.10
2023-03-28T01:30:09.652Z,1014.25
2023-03-28T01:31:09.691Z,1014.26
2023-03-28T01:32:09.646Z,1014.26
2023-03-28T01:33:09.740Z,1014.28
2023-03-28T01:34:09.661Z,1014.28
2023-03-28T01:35:09.662Z,1014.31
2023-03-28T01:36:09.658Z,1014.40
2023-03-28T01:37:09.661Z,1014.39
2023-03-28T01:38:09.652Z,1014.49
2023-03-28T01:39:09.664Z,1014.40
2023-03-28T01:40:09.659Z,1014.46
2023-03-28T01:41:09.669Z,1014.43
2023-03-28T01:42:09.692Z,1014.42
2023-03-28T01:43:09.663Z,1014.39
2023-03-28T01:44:09.669Z,1014.44
2023-03-28T01:45:09.664Z,1014.39
2023-03-28T01:46:09.689Z,1014.45
2023-03-28T01:47:09.671Z,1014.40
2023-03-28T01:48:09.673Z,1014.44
2023-03-28T01:49:09.670Z,1014.45
2023-03-28T01:50:09.671Z,1014.44
2023-03-28T01:51:09.678Z,1014.52
2023-03-28T01:52:09.673Z,1014.52
2023-03-28T01:53:09.672Z,1014.56
2023-03-28T01:54:09.682Z,1014.54
2023-03-28T01:55:09.680Z,1014.54
2023-03-28T01:56:09.688Z,1014.53
2023-03-28T01:57:09.733Z,1014.53
2023-03-28T01:58:09.714Z,1014.51
2023-03-28T01:59:09.685Z,1014.54
2023-03-28T02:00:09.688Z,1014.56
2023-03-28T02:01:09.744Z,1014.52
2023-03-28T02:02:09.792Z,1014.53
2023-03-28T02:03:09.782Z,1014.57
2023-03-28T02:04:20.242Z,1014.65
2023-03-28T02:05:09.694Z,1014.64
2023-03-28T02:06:09.692Z,1014.63
2023-03-28T02:07:09.688Z,1014.60
2023-03-28T02:08:09.688Z,1014.61
2023-03-28T02:09:09.692Z,1014.63
2023-03-28T02:10:09.695Z,1014.70
2023-03-28T02:11:09.700Z,1014.73
2023-03-28T02:12:09.703Z,1014.68
2023-03-28T02:13:09.700Z,1014.70
2023-03-28T02:14:09.732Z,1014.74
2023-03-28T02:15:09.705Z,1014.74
2023-03-28T02:16:09.740Z,1014.73
2023-03-28T02:17:09.704Z,1014.73
2023-03-28T02:18:09.709Z,1014.82
2023-03-28T02:19:09.707Z,1014.78
2023-03-28T02:20:09.706Z,1014.76
2023-03-28T02:21:09.717Z,1014.80
2023-03-28T02:22:09.718Z,1014.78
2023-03-28T02:23:09.709Z,1014.90
2023-03-28T02:24:09.796Z,1014.82
2023-03-28T02:25:09.713Z,1014.86
2023-03-28T02:26:09.737Z,1014.91
2023-03-28T02:27:09.723Z,1015.00
2023-03-28T02:28:09.735Z,1014.89
2023-03-28T02:29:09.724Z,1014.89
2023-03-28T02:30:09.753Z,1014.91
2023-03-28T02:31:09.727Z,1014.87
2023-03-28T02:32:09.924Z,1014.91
2023-03-28T02:33:09.771Z,1014.99
2023-03-28T02:34:09.737Z,1014.95
2023-03-28T02:35:09.733Z,1014.94
2023-03-28T02:36:09.736Z,1015.04
2023-03-28T02:37:09.734Z,1015.06
2023-03-28T02:38:09.746Z,1015.00
2023-03-28T02:39:09.736Z,1015.04
2023-03-28T02:40:09.738Z,1015.04
2023-03-28T02:41:09.732Z,1015.04
2023-03-28T02:42:09.732Z,1015.09
2023-03-28T02:43:09.742Z,1015.04
2023-03-28T02:44:09.751Z,1015.08
2023-03-28T02:45:09.756Z,1015.07
2023-03-28T02:46:09.794Z,1015.13
2023-03-28T02:47:09.748Z,1015.07
2023-03-28T02:48:09.753Z,1015.10
2023-03-28T02:49:09.748Z,1015.08
2023-03-28T02:50:09.749Z,1015.09
2023-03-28T02:51:09.747Z,1015.11
2023-03-28T02:52:09.760Z,1015.13
2023-03-28T02:53:09.745Z,1015.17
2023-03-28T02:54:09.745Z,1015.19
2023-03-28T02:55:09.754Z,1015.19
2023-03-28T02:56:09.779Z,1015.19
2023-03-28T02:57:09.777Z,1015.19
2023-03-28T02:58:09.754Z,1015.19
2023-03-28T02:59:09.757Z,1015.16
2023-03-28T03:00:09.757Z,1015.21
2023-03-28T03:01:09.767Z,1015.23
2023-03-28T03:02:09.789Z,1015.20
2023-03-28T03:03:09.793Z,1015.18
2023-03-28T03:04:09.838Z,1015.24
2023-03-28T03:05:09.785Z,1015.21
2023-03-28T03:06:09.764Z,1015.26
2023-03-28T03:07:09.755Z,1015.23
2023-03-28T03:08:09.760Z,1015.28
2023-03-28T03:09:09.762Z,1015.29
2023-03-28T03:10:09.768Z,1015.32
2023-03-28T03:11:09.763Z,1015.34
2023-03-28T03:12:09.763Z,1015.32
2023-03-28T03:13:09.785Z,1015.35
2023-03-28T03:14:09.771Z,1015.36
2023-03-28T03:15:09.765Z,1015.38
2023-03-28T03:16:09.839Z,1015.34
2023-03-28T03:17:09.769Z,1015.38
2023-03-28T03:18:09.861Z,1015.31
2023-03-28T03:19:09.775Z,1015.39
2023-03-28T03:20:09.771Z,1015.42
2023-03-28T03:21:09.769Z,1015.39
2023-03-28T03:22:09.775Z,1015.43
2023-03-28T03:23:09.769Z,1015.43
2023-03-28T03:24:09.789Z,1015.48
2023-03-28T03:25:10.631Z,1015.43
2023-03-28T03:26:09.776Z,1015.46
2023-03-28T03:27:09.793Z,1015.44
2023-03-28T03:28:09.894Z,1015.53
2023-03-28T03:29:09.811Z,1015.54
2023-03-28T03:30:09.775Z,1015.49
2023-03-28T03:31:09.808Z,1015.56
2023-03-28T03:32:09.784Z,1015.59
2023-03-28T03:33:09.778Z,1015.56
2023-03-28T03:34:09.808Z,1015.53
2023-03-28T03:35:09.788Z,1015.59
2023-03-28T03:36:09.840Z,1015.59
2023-03-28T03:37:09.800Z,1015.58
2023-03-28T03:38:09.787Z,1015.67
2023-03-28T03:39:09.796Z,1015.66
2023-03-28T03:40:09.805Z,1015.69
2023-03-28T03:41:09.788Z,1015.69
2023-03-28T03:42:09.792Z,1015.68
2023-03-28T03:43:09.786Z,1015.72
2023-03-28T03:44:09.786Z,1015.74
2023-03-28T03:45:09.807Z,1015.78
2023-03-28T03:46:09.811Z,1015.82
2023-03-28T03:47:09.800Z,1015.82
2023-03-28T03:48:09.802Z,1015.82
2023-03-28T03:49:09.800Z,1015.83
2023-03-28T03:50:09.824Z,1015.86
2023-03-28T03:51:09.799Z,1015.84
2023-03-28T03:52:09.791Z,1015.84
2023-03-28T03:53:09.796Z,1015.92
2023-03-28T03:54:09.798Z,1015.89
2023-03-28T03:55:09.795Z,1015.91
2023-03-28T03:56:09.798Z,1015.96
2023-03-28T03:57:09.892Z,1015.91
2023-03-28T03:58:09.794Z,1015.96
2023-03-28T03:59:09.807Z,1015.97
2023-03-28T04:00:09.802Z,1016.01
2023-03-28T04:01:09.840Z,1016.00
2023-03-28T04:02:09.822Z,1016.01
2023-03-28T04:03:09.843Z,1016.04
2023-03-28T04:04:09.826Z,1016.04
2023-03-28T04:05:09.800Z,1016.05
2023-03-28T04:06:09.836Z,1016.07
2023-03-28T04:07:09.801Z,1016.07
2023-03-28T04:08:09.810Z,1016.08
2023-03-28T04:09:09.813Z,1016.13
2023-03-28T04:10:09.809Z,1016.05
2023-03-28T04:11:09.818Z,1016.07
2023-03-28T04:12:09.807Z,1016.11
2023-03-28T04:13:09.812Z,1016.13
2023-03-28T04:14:09.815Z,1016.14
2023-03-28T04:15:09.810Z,1016.17
2023-03-28T04:16:09.836Z,1016.14
2023-03-28T04:17:09.826Z,1016.18
2023-03-28T04:18:09.998Z,1016.19
2023-03-28T04:19:09.820Z,1016.22
2023-03-28T04:20:09.815Z,1016.29
2023-03-28T04:21:09.876Z,1016.24
2023-03-28T04:22:09.840Z,1016.27
2023-03-28T04:23:09.826Z,1016.33
2023-03-28T04:24:09.845Z,1016.33
2023-03-28T04:25:09.822Z,1016.35
2023-03-28T04:26:09.824Z,1016.38
2023-03-28T04:27:09.836Z,1016.41
2023-03-28T04:28:09.820Z,1016.35
2023-03-28T04:29:09.823Z,1016.40
2023-03-28T04:30:09.829Z,1016.41
2023-03-28T04:31:09.842Z,1016.40
2023-03-28T04:32:09.833Z,1016.40
2023-03-28T04:33:09.993Z,1016.45
2023-03-28T04:34:09.828Z,1016.47
2023-03-28T04:35:09.833Z,1016.45
2023-03-28T04:36:09.849Z,1016.51
2023-03-28T04:37:09.855Z,1016.48
2023-03-28T04:38:09.877Z,1016.47
2023-03-28T04:39:09.832Z,1016.50
2023-03-28T04:40:09.836Z,1016.54
2023-03-28T04:41:09.837Z,1016.57
2023-03-28T04:42:09.879Z,1016.55
2023-03-28T04:43:09.844Z,1016.57
2023-03-28T04:44:09.837Z,1016.58
2023-03-28T04:45:09.849Z,1016.70
2023-03-28T04:46:09.891Z,1016.67
2023-03-28T04:47:09.842Z,1016.66
2023-03-28T04:48:09.870Z,1016.73
2023-03-28T04:49:09.854Z,1016.70
2023-03-28T04:50:09.860Z,1016.74
2023-03-28T04:51:09.859Z,1016.77
2023-03-28T04:52:09.849Z,1016.74
2023-03-28T04:53:09.857Z,1016.79
2023-03-28T04:54:09.873Z,1016.78
2023-03-28T04:55:09.847Z,1016.80
2023-03-28T04:56:09.858Z,1016.80
2023-03-28T04:57:09.944Z,1016.80
2023-03-28T04:58:09.852Z,1016.79
2023-03-28T04:59:09.863Z,1016.84
2023-03-28T05:00:09.883Z,1016.86
2023-03-28T05:01:09.872Z,1016.84
2023-03-28T05:02:09.887Z,1016.84
2023-03-28T05:03:12.841Z,1016.86
2023-03-28T05:04:09.858Z,1016.86
2023-03-28T05:05:09.860Z,1016.90
2023-03-28T05:06:09.859Z,1016.90
2023-03-28T05:07:09.858Z,1016.93
2023-03-28T05:08:09.864Z,1016.91
2023-03-28T05:09:09.853Z,1016.92
2023-03-28T05:10:11.240Z,1016.93
2023-03-28T05:11:09.858Z,1016.93
2023-03-28T05:12:09.890Z,1016.94
2023-03-28T05:13:09.856Z,1016.93
2023-03-28T05:14:09.860Z,1016.94
2023-03-28T05:15:09.864Z,1016.96
2023-03-28T05:16:09.932Z,1016.97
2023-03-28T05:17:09.856Z,1016.97
2023-03-28T05:18:09.887Z,1016.95
2023-03-28T05:19:09.880Z,1016.98
2023-03-28T05:20:09.870Z,1017.05
2023-03-28T05:21:09.861Z,1017.04
2023-03-28T05:22:09.863Z,1017.04
2023-03-28T05:23:09.877Z,1017.07
2023-03-28T05:24:09.864Z,1017.12
2023-03-28T05:25:09.863Z,1017.08
2023-03-28T05:26:09.895Z,1017.14
2023-03-28T05:27:09.867Z,1017.09
2023-03-28T05:28:09.874Z,1017.13
2023-03-28T05:29:09.872Z,1017.14
2023-03-28T05:30:09.873Z,1017.17
2023-03-28T05:31:09.864Z,1017.20
2023-03-28T05:32:09.941Z,1017.22
2023-03-28T05:33:09.905Z,1017.26
2023-03-28T05:34:09.868Z,1017.22
2023-03-28T05:35:09.876Z,1017.25
2023-03-28T05:36:09.916Z,1017.32
2023-03-28T05:37:09.877Z,1017.33
2023-03-28T05:38:09.884Z,1017.35
2023-03-28T05:39:09.880Z,1017.38
2023-03-28T05:40:09.892Z,1017.39
2023-03-28T05:41:09.877Z,1017.37
2023-03-28T05:42:09.900Z,1017.39
2023-03-28T05:43:09.885Z,1017.41
2023-03-28T05:44:09.880Z,1017.42
2023-03-28T05:45:09.887Z,1017.45
2023-03-28T05:46:09.925Z,1017.45
2023-03-28T05:47:09.888Z,1017.48
2023-03-28T05:48:09.928Z,1017.51
2023-03-28T05:49:09.889Z,1017.53
2023-03-28T05:50:09.893Z,1017.56
2023-03-28T05:51:09.892Z,1017.61
2023-03-28T05:52:09.898Z,1017.60
2023-03-28T05:53:09.892Z,1017.63
2023-03-28T05:54:09.896Z,1017.62
2023-03-28T05:55:09.890Z,1017.63
2023-03-28T05:56:09.915Z,1017.66
2023-03-28T05:57:09.936Z,1017.71
2023-03-28T05:58:09.912Z,1017.66
2023-03-28T05:59:09.889Z,1017.72
2023-03-28T06:00:09.890Z,1017.76
2023-03-28T06:01:09.892Z,1017.73
2023-03-28T06:02:09.892Z,1017.80
2023-03-28T06:03:16.063Z,1017.72
2023-03-28T06:04:09.972Z,1017.75
2023-03-28T06:05:10.008Z,1017.77
2023-03-28T06:06:09.908Z,1017.77
2023-03-28T06:07:09.896Z,1017.77
2023-03-28T06:08:10.008Z,1017.78
2023-03-28T06:09:09.918Z,1017.75
2023-03-28T06:10:09.901Z,1017.77
2023-03-28T06:11:09.904Z,1017.78
2023-03-28T06:12:09.898Z,1017.81
2023-03-28T06:13:09.904Z,1017.86
2023-03-28T06:14:09.928Z,1017.87
2023-03-28T06:15:09.915Z,1017.90
2023-03-28T06:16:09.908Z,1017.90
2023-03-28T06:17:09.950Z,1017.95
2023-03-28T06:18:09.985Z,1017.95
2023-03-28T06:19:17.935Z,1017.95
2023-03-28T06:20:10.068Z,1017.94
2023-03-28T06:21:09.908Z,1017.99
2023-03-28T06:22:09.916Z,1018.01
2023-03-28T06:23:09.909Z,1018.04
2023-03-28T06:24:09.922Z,1018.06
2023-03-28T06:25:09.917Z,1018.06
2023-03-28T06:26:09.915Z,1018.07
2023-03-28T06:27:09.919Z,1018.08
2023-03-28T06:28:09.938Z,1018.06
2023-03-28T06:29:09.916Z,1018.10
2023-03-28T06:30:09.952Z,1018.13
2023-03-28T06:31:09.952Z,1018.13
2023-03-28T06:32:09.920Z,1018.10
2023-03-28T06:33:09.930Z,1018.11
2023-03-28T06:34:09.927Z,1018.13
2023-03-28T06:35:09.980Z,1018.14
2023-03-28T06:36:09.984Z,1018.16
2023-03-28T06:37:09.938Z,1018.16
2023-03-28T06:38:09.964Z,1018.19
2023-03-28T06:39:09.932Z,1018.19
2023-03-28T06:40:09.957Z,1018.21
2023-03-28T06:41:09.935Z,1018.18
2023-03-28T06:42:09.932Z,1018.18
2023-03-28T06:43:09.941Z,1018.25
2023-03-28T06:44:09.942Z,1018.20
2023-03-28T06:45:09.960Z,1018.21
2023-03-28T06:46:10.003Z,1018.26
2023-03-28T06:47:09.964Z,1018.24
2023-03-28T06:48:09.990Z,1018.21
2023-03-28T06:49:09.965Z,1018.27
2023-03-28T06:50:09.955Z,1018.29
2023-03-28T06:51:09.945Z,1018.25
2023-03-28T06:52:09.955Z,1018.21
2023-03-28T06:53:09.955Z,1018.25
2023-03-28T06:54:09.945Z,1018.21
2023-03-28T06:55:09.956Z,1018.23
2023-03-28T06:56:09.949Z,1018.24
2023-03-28T06:57:10.003Z,1018.26
2023-03-28T06:58:09.959Z,1018.27
2023-03-28T06:59:09.961Z,1018.26
2023-03-28T07:00:09.987Z,1018.30
2023-03-28T07:01:09.991Z,1018.29
2023-03-28T07:02:10.030Z,1018.35
2023-03-28T07:03:10.046Z,1018.32
2023-03-28T07:04:10.036Z,1018.36
2023-03-28T07:05:09.961Z,1018.37
2023-03-28T07:06:09.975Z,1018.40
2023-03-28T07:07:10.069Z,1018.36
2023-03-28T07:08:09.971Z,1018.39
2023-03-28T07:09:09.966Z,1018.39
2023-03-28T07:10:09.970Z,1018.39
2023-03-28T07:11:09.972Z,1018.41
2023-03-28T07:12:09.984Z,1018.38
2023-03-28T07:13:09.984Z,1018.40
2023-03-28T07:14:09.982Z,1018.40
2023-03-28T07:15:09.986Z,1018.41
2023-03-28T07:16:10.026Z,1018.40
2023-03-28T07:17:09.990Z,1018.45
2023-03-28T07:18:10.057Z,1018.47
2023-03-28T07:19:09.988Z,1018.44
2023-03-28T07:20:10.000Z,1018.48
2023-03-28T07:21:10.385Z,1018.44
2023-03-28T07:22:09.995Z,1018.42
2023-03-28T07:23:09.986Z,1018.47
2023-03-28T07:24:09.999Z,1018.42
2023-03-28T07:25:10.007Z,1018.49
2023-03-28T07:26:10.006Z,1018.52
2023-03-28T07:27:15.656Z,1018.52
2023-03-28T07:28:09.994Z,1018.49
2023-03-28T07:29:10.021Z,1018.53
2023-03-28T07:30:10.007Z,1018.59
2023-03-28T07:31:10.110Z,1018.56
2023-03-28T07:32:09.997Z,1018.58
2023-03-28T07:33:17.471Z,1018.59
2023-03-28T07:34:10.050Z,1018.56
2023-03-28T07:35:10.019Z,1018.58
2023-03-28T07:36:10.038Z,1018.61
2023-03-28T07:37:10.035Z,1018.54
2023-03-28T07:38:10.153Z,1018.62
2023-03-28T07:39:10.018Z,1018.57
2023-03-28T07:40:10.020Z,1018.61
2023-03-28T07:41:10.012Z,1018.64
2023-03-28T07:42:10.022Z,1018.67
2023-03-28T07:43:10.023Z,1018.66
2023-03-28T07:44:10.039Z,1018.69
2023-03-28T07:45:10.027Z,1018.66
2023-03-28T07:46:10.120Z,1018.69
2023-03-28T07:47:10.025Z,1018.69
2023-03-28T07:48:10.105Z,1018.70
2023-03-28T07:49:10.026Z,1018.76
2023-03-28T07:50:10.052Z,1018.71
2023-03-28T07:51:10.030Z,1018.77
2023-03-28T07:52:10.048Z,1018.74
2023-03-28T07:53:10.036Z,1018.73
2023-03-28T07:54:10.037Z,1018.75
2023-03-28T07:55:10.045Z,1018.71
2023-03-28T07:56:10.046Z,1018.68
2023-03-28T07:57:10.134Z,1018.61
2023-03-28T07:58:10.042Z,1018.70
2023-03-28T07:59:10.042Z,1018.68
2023-03-28T08:00:10.053Z,1018.66
2023-03-28T08:01:10.045Z,1018.70
2023-03-28T08:02:10.043Z,1018.71
2023-03-28T08:03:10.107Z,1018.63
2023-03-28T08:04:10.186Z,1018.70
2023-03-28T08:05:10.101Z,1018.75
2023-03-28T08:06:20.590Z,1018.80
2023-03-28T08:07:10.057Z,1018.87
2023-03-28T08:08:10.057Z,1018.73
2023-03-28T08:09:10.067Z,1018.80
2023-03-28T08:10:10.064Z,1018.70
2023-03-28T08:11:10.072Z,1018.66
2023-03-28T08:12:10.063Z,1018.68
2023-03-28T08:13:10.074Z,1018.65
2023-03-28T08:14:10.094Z,1018.61
2023-03-28T08:15:10.077Z,1018.54
2023-03-28T08:16:10.151Z,1018.59
2023-03-28T08:17:10.097Z,1018.55
2023-03-28T08:18:10.098Z,1018.46
2023-03-28T08:19:11.802Z,1018.57
2023-03-28T08:20:10.080Z,1018.57
2023-03-28T08:21:10.095Z,1018.55
2023-03-28T08:22:10.115Z,1018.59
2023-03-28T08:23:10.086Z,1018.51
2023-03-28T08:24:10.100Z,1018.51
2023-03-28T08:25:10.104Z,1018.50
2023-03-28T08:26:10.102Z,1018.53
2023-03-28T09:05:45.424Z,1018.31
2023-03-28T09:06:45.416Z,1018.36
2023-03-28T09:07:45.422Z,1018.37
2023-03-28T09:08:45.422Z,1018.32
2023-03-28T09:09:45.433Z,1018.35
2023-03-28T09:10:45.439Z,1018.22
2023-03-28T09:11:45.449Z,1018.28
2023-03-28T09:12:45.454Z,1018.19
2023-03-28T09:13:45.459Z,1018.36
2023-03-28T09:14:45.476Z,1018.31
2023-03-28T09:15:45.494Z,1018.41
2023-03-28T09:16:45.528Z,1018.37
2023-03-28T09:17:45.550Z,1018.35
2023-03-28T09:18:45.502Z,1018.44
2023-03-28T09:19:48.851Z,1018.39
2023-03-28T09:20:45.521Z,1018.37
2023-03-28T09:21:45.563Z,1018.22
2023-03-28T09:22:45.549Z,1018.28
2023-03-28T09:23:45.570Z,1018.28
2023-03-28T09:24:45.560Z,1018.23
2023-03-28T09:25:45.576Z,1018.41
2023-03-28T09:26:45.591Z,1018.26
2023-03-28T09:27:45.591Z,1018.27
2023-03-28T09:28:45.602Z,1018.27
2023-03-28T09:29:45.628Z,1018.34
2023-03-28T09:30:45.621Z,1018.27
2023-03-28T09:31:45.667Z,1018.40
2023-03-28T09:32:45.701Z,1018.39
2023-03-28T09:33:45.651Z,1018.37
2023-03-28T09:34:45.658Z,1018.37
2023-03-28T09:35:45.713Z,1018.35
2023-03-28T09:36:48.993Z,1018.34
2023-03-28T09:37:45.753Z,1018.32
2023-03-28T09:38:45.704Z,1018.36
2023-03-28T09:39:45.719Z,1018.22
2023-03-28T09:40:45.734Z,1018.24
2023-03-28T09:41:45.745Z,1018.31
2023-03-28T10:11:01.671Z,1018.15
2023-03-28T10:12:01.381Z,1018.22
2023-03-28T10:13:01.377Z,1018.22
2023-03-28T10:14:01.398Z,1018.24
2023-03-28T10:15:01.406Z,1018.17
2023-03-28T10:16:01.432Z,1018.26
2023-03-28T10:17:01.422Z,1018.33
2023-03-28T10:18:01.450Z,1018.27
2023-03-28T10:19:01.438Z,1018.26
2023-03-28T10:20:01.451Z,1018.30
2023-03-28T10:21:01.572Z,1018.26
2023-03-28T10:22:01.460Z,1018.26
2023-03-28T10:27:10.692Z,1018.23
2023-03-28T10:28:10.663Z,1018.25
2023-03-28T11:34:21.088Z,1018.20
2023-03-28T11:35:21.102Z,1018.19
2023-03-28T11:36:21.081Z,1018.19
2023-03-28T11:37:21.098Z,1018.22
2023-03-28T11:38:21.100Z,1018.24
2023-03-28T11:39:21.116Z,1018.26
2023-03-28T11:40:21.153Z,1018.26
2023-03-28T11:41:21.133Z,1018.19
2023-03-28T11:42:21.141Z,1018.24
2023-03-28T11:43:21.145Z,1018.16
2023-03-28T11:44:21.157Z,1018.19
2023-03-28T11:45:30.698Z,1018.19
2023-03-28T11:46:21.245Z,1018.19
2023-03-28T11:47:21.252Z,1018.16
2023-03-28T11:48:21.200Z,1018.21
2023-03-28T11:49:21.213Z,1018.21
2023-03-28T11:50:21.259Z,1018.20
2023-03-28T11:51:21.219Z,1018.14
2023-03-28T11:52:21.237Z,1018.14
2023-03-28T11:53:21.239Z,1018.22
2023-03-28T11:54:21.244Z,1018.16
2023-03-28T11:55:21.265Z,1018.05
2023-03-28T11:56:21.282Z,1018.13
2023-03-28T11:58:03.824Z,1018.12
2023-03-28T11:59:03.846Z,1018.17
2023-03-28T12:00:56.446Z,1018.10
2023-03-28T12:01:56.427Z,1018.11
2023-03-28T12:02:56.592Z,1018.09
2023-03-28T12:03:56.496Z,1018.11
2023-03-28T12:05:39.001Z,1018.11
2023-03-28T12:06:44.050Z,1018.11
2023-03-28T12:07:38.995Z,1018.11
2023-03-28T12:08:38.995Z,1018.14
2023-03-28T12:09:39.011Z,1018.09
2023-03-28T12:10:39.018Z,1018.06
2023-03-28T12:11:39.018Z,1018.10
2023-03-28T12:12:39.028Z,1018.11
2023-03-28T12:13:45.573Z,1018.10
2023-03-28T12:14:39.052Z,1018.11
2023-03-28T12:15:39.056Z,1018.03
2023-03-28T12:16:41.870Z,1018.06
2023-03-28T12:17:39.138Z,1018.09
2023-03-28T12:18:39.077Z,1018.07
2023-03-28T12:19:39.097Z,1018.05
2023-03-28T12:20:39.095Z,1018.07
2023-03-28T12:21:39.247Z,1018.03
2023-03-28T12:22:39.122Z,1018.05
2023-03-28T12:23:39.130Z,1018.06
2023-03-28T12:24:39.127Z,1018.11
2023-03-28T12:25:39.138Z,1018.05
2023-03-28T12:26:39.155Z,1018.06
2023-03-28T12:27:39.151Z,1018.07
2023-03-28T12:28:39.159Z,1018.15
2023-03-28T12:29:39.195Z,1018.07
2023-03-28T12:30:39.218Z,1018.08
2023-03-28T12:31:39.189Z,1018.08
2023-03-28T12:32:39.227Z,1018.09
2023-03-28T12:33:39.208Z,1018.13
2023-03-28T12:34:39.227Z,1018.09
2023-03-28T12:35:39.267Z,1018.05
2023-03-28T12:36:39.247Z,1018.10
2023-03-28T12:37:39.269Z,1018.11
2023-03-28T12:38:39.250Z,1018.09
2023-03-28T12:39:39.249Z,1018.07
2023-03-28T12:40:39.267Z,1018.10
2023-03-28T12:42:21.821Z,1018.12
2023-03-28T12:43:21.819Z,1018.12
2023-03-28T12:44:22.415Z,1018.10
2023-03-28T12:45:21.842Z,1018.16
2023-03-28T12:46:21.897Z,1018.14
2023-03-28T12:47:21.861Z,1018.11
2023-03-28T12:48:21.856Z,1018.12
2023-03-28T12:49:21.861Z,1018.11
2023-03-28T12:50:23.456Z,1018.09
2023-03-28T12:51:21.880Z,1018.11
2023-03-28T12:52:21.891Z,1018.14
2023-03-28T12:53:21.962Z,1018.15
2023-03-28T12:54:21.899Z,1018.18
2023-03-28T12:55:21.913Z,1018.14
2023-03-28T13:03:05.796Z,1018.18
2023-03-28T13:04:05.444Z,1018.20
2023-03-28T13:05:01.944Z,1018.17
2023-03-28T13:06:02.188Z,1018.16
2023-03-28T13:07:01.961Z,1018.13
2023-03-28T13:08:01.962Z,1018.15
2023-03-28T13:09:01.990Z,1018.15
2023-03-28T13:10:01.977Z,1018.13
2023-03-28T13:11:02.247Z,1018.16
2023-03-28T13:12:02.012Z,1018.15
2023-03-28T13:13:01.997Z,1018.16
2023-03-28T13:14:02.005Z,1018.21
2023-03-28T13:15:02.032Z,1018.19
2023-03-28T13:16:02.158Z,1018.17
2023-03-28T13:17:02.025Z,1018.19
2023-03-28T13:18:02.058Z,1018.21
2023-03-28T13:19:02.035Z,1018.19
2023-03-28T13:20:03.256Z,1018.21
2023-03-28T13:21:02.205Z,1018.23
2023-03-28T13:22:02.055Z,1018.21
2023-03-28T13:23:02.085Z,1018.23
2023-03-28T13:24:02.059Z,1018.23
2023-03-28T13:25:02.868Z,1018.20
2023-03-28T13:26:02.484Z,1018.23
2023-03-28T13:27:02.079Z,1018.24
2023-03-28T13:28:02.090Z,1018.18
2023-03-28T13:29:02.086Z,1018.22
2023-03-28T13:30:02.103Z,1018.22
2023-03-28T13:31:02.158Z,1018.21
2023-03-28T13:32:02.111Z,1018.24
2023-03-28T13:33:02.247Z,1018.18
2023-03-28T13:34:02.219Z,1018.22
2023-03-28T13:35:02.122Z,1018.26
2023-03-28T13:36:02.468Z,1018.23
2023-03-28T13:37:02.138Z,1018.19
2023-03-28T13:38:02.142Z,1018.22
2023-03-28T13:39:02.142Z,1018.24
2023-03-28T13:40:02.200Z,1018.23
2023-03-28T13:41:02.470Z,1018.19
2023-03-28T13:42:02.165Z,1018.20
2023-03-28T13:43:02.165Z,1018.20
2023-03-28T13:44:02.170Z,1018.23
2023-03-28T13:45:02.182Z,1018.16
2023-03-28T13:46:02.468Z,1018.16
2023-03-28T13:47:02.225Z,1018.14
2023-03-28T13:48:12.699Z,1018.12
2023-03-28T13:49:02.203Z,1018.12
2023-03-28T13:50:02.248Z,1018.11
2023-03-28T13:51:02.451Z,1018.07
2023-03-28T13:52:02.225Z,1018.09
2023-03-28T13:53:02.230Z,1018.05
2023-03-28T13:54:02.231Z,1018.08
2023-03-28T13:55:02.236Z,1018.02
2023-03-28T13:56:02.320Z,1018.05
2023-03-28T13:57:02.311Z,1018.02
2023-03-28T13:58:02.256Z,1017.99
2023-03-28T13:59:02.261Z,1018.03
2023-03-28T14:00:02.326Z,1018.07
2023-03-28T14:01:02.634Z,1018.06
2023-03-28T14:02:02.294Z,1018.09
2023-03-28T14:03:02.309Z,1018.10
2023-03-28T14:04:02.292Z,1018.12
2023-03-28T14:05:02.297Z,1018.04
2023-03-28T14:06:02.297Z,1018.07
2023-03-28T14:07:02.303Z,1018.05
2023-03-28T14:08:02.315Z,1018.10
2023-03-28T14:09:57.599Z,1018.05
2023-03-28T14:10:54.897Z,1018.05
2023-03-28T14:21:40.291Z,1018.06
2023-03-28T14:25:30.307Z,1018.02
2023-03-28T14:26:29.983Z,1017.96
2023-03-28T14:27:29.979Z,1017.96
2023-03-28T14:28:29.994Z,1017.99
2023-03-28T14:29:29.994Z,1017.92
2023-03-28T14:30:29.994Z,1017.96
2023-03-28T14:31:30.080Z,1017.99
2023-03-28T14:32:30.056Z,1017.92
2023-03-28T14:33:30.038Z,1017.91
2023-03-28T14:34:30.028Z,1018.00
2023-03-28T14:35:30.062Z,1017.99
2023-03-28T14:36:30.042Z,1017.99
2023-03-28T14:37:30.069Z,1018.01
2023-03-28T14:38:30.055Z,1018.06
2023-03-28T14:39:30.059Z,1018.03
2023-03-28T14:40:30.071Z,1018.04
2023-03-28T14:41:30.068Z,1018.02
2023-03-28T14:42:30.073Z,1018.02
2023-03-28T14:43:30.087Z,1017.99
2023-03-28T14:44:30.087Z,1018.01